DAL5592 KBHM-KTPA
Flight info
| Callsign | DAL5592 |
|---|---|
| Flight time | 1h 8m |
| Altitude | 35000 |
| Route | GUMMP MGMRY ACORI MAATY5 |
| Aircraft | MD83/M-SDFGIRWY/C |
Departure
| Time | 2026-04-19 23:13 |
|---|---|
| Airport | Birmingham-Shuttlesworth International Airport (KBHM) |
Arrival
| Time | 2026-04-20 00:21 |
|---|---|
| Airport | Tampa International Airport (KTPA) |
| Time | Latitude | Longitude | Altitude | Speed | Heading |
|---|---|---|---|---|---|
| 2026-04-19 22:41 | 33.56289 | -86.75228 | 640 ft | 0 kts | 144° |
| 2026-04-19 23:01 | 33.56290 | -86.75228 | 640 ft | 0 kts | 144° |
| 2026-04-19 23:01 | 33.56302 | -86.75238 | 640 ft | 2 kts | 149° |
| 2026-04-19 23:01 | 33.56317 | -86.75248 | 640 ft | 2 kts | 157° |
| 2026-04-19 23:02 | 33.56332 | -86.75254 | 640 ft | 2 kts | 169° |
| 2026-04-19 23:02 | 33.56349 | -86.75254 | 640 ft | 2 kts | 193° |
| 2026-04-19 23:02 | 33.56364 | -86.75246 | 640 ft | 2 kts | 221° |
| 2026-04-19 23:02 | 33.56372 | -86.75235 | 640 ft | 1 kts | 234° |
| 2026-04-19 23:03 | 33.56373 | -86.75234 | 640 ft | 0 kts | 234° |
| 2026-04-19 23:05 | 33.56364 | -86.75249 | 640 ft | 4 kts | 234° |
| 2026-04-19 23:05 | 33.56345 | -86.75281 | 641 ft | 8 kts | 235° |
| 2026-04-19 23:06 | 33.56341 | -86.75328 | 641 ft | 4 kts | 310° |
| 2026-04-19 23:06 | 33.56364 | -86.75345 | 642 ft | 3 kts | 328° |
| 2026-04-19 23:06 | 33.56378 | -86.75379 | 643 ft | 10 kts | 264° |
| 2026-04-19 23:06 | 33.56356 | -86.75431 | 644 ft | 5 kts | 237° |
| 2026-04-19 23:07 | 33.56329 | -86.75479 | 644 ft | 12 kts | 235° |
| 2026-04-19 23:07 | 33.56279 | -86.75564 | 643 ft | 13 kts | 235° |
| 2026-04-19 23:07 | 33.56228 | -86.75652 | 643 ft | 13 kts | 236° |
| 2026-04-19 23:07 | 33.56179 | -86.75741 | 643 ft | 13 kts | 237° |
| 2026-04-19 23:08 | 33.56122 | -86.75840 | 639 ft | 16 kts | 233° |
| 2026-04-19 23:08 | 33.56053 | -86.75956 | 636 ft | 18 kts | 235° |
| 2026-04-19 23:08 | 33.55986 | -86.76074 | 632 ft | 17 kts | 236° |
| 2026-04-19 23:08 | 33.55920 | -86.76190 | 628 ft | 16 kts | 235° |
| 2026-04-19 23:09 | 33.55854 | -86.76302 | 627 ft | 17 kts | 235° |
| 2026-04-19 23:09 | 33.55785 | -86.76421 | 624 ft | 18 kts | 235° |
| 2026-04-19 23:09 | 33.55711 | -86.76549 | 624 ft | 17 kts | 235° |
| 2026-04-19 23:09 | 33.55659 | -86.76639 | 623 ft | 13 kts | 235° |
| 2026-04-19 23:10 | 33.55603 | -86.76736 | 621 ft | 15 kts | 236° |
| 2026-04-19 23:10 | 33.55543 | -86.76841 | 619 ft | 12 kts | 236° |
| 2026-04-19 23:10 | 33.55497 | -86.76922 | 623 ft | 11 kts | 236° |
| 2026-04-19 23:10 | 33.55448 | -86.77008 | 626 ft | 12 kts | 235° |
| 2026-04-19 23:11 | 33.55421 | -86.77074 | 615 ft | 8 kts | 271° |
| 2026-04-19 23:11 | 33.55449 | -86.77118 | 612 ft | 6 kts | 324° |
| 2026-04-19 23:11 | 33.55483 | -86.77127 | 612 ft | 4 kts | 21° |
| 2026-04-19 23:11 | 33.55501 | -86.77109 | 621 ft | 2 kts | 47° |
| 2026-04-19 23:12 | 33.55503 | -86.77107 | 613 ft | 0 kts | 48° |
| 2026-04-19 23:12 | 33.55514 | -86.77091 | 624 ft | 12 kts | 50° |
| 2026-04-19 23:12 | 33.55646 | -86.76869 | 620 ft | 61 kts | 55° |
| 2026-04-19 23:12 | 33.56020 | -86.76221 | 633 ft | 125 kts | 55° |
| 2026-04-19 23:13 | 33.56587 | -86.75197 | 791 ft | 159 kts | 57° |
| 2026-04-19 23:13 | 33.57186 | -86.74025 | 1319 ft | 173 kts | 57° |
| 2026-04-19 23:13 | 33.57647 | -86.72647 | 1929 ft | 186 kts | 77° |
| 2026-04-19 23:13 | 33.57655 | -86.71036 | 2538 ft | 201 kts | 96° |
| 2026-04-19 23:14 | 33.57266 | -86.69354 | 3121 ft | 217 kts | 105° |
| 2026-04-19 23:14 | 33.56729 | -86.67607 | 3694 ft | 228 kts | 107° |
| 2026-04-19 23:14 | 33.56148 | -86.65787 | 4166 ft | 237 kts | 108° |
| 2026-04-19 23:14 | 33.55521 | -86.63929 | 4681 ft | 243 kts | 112° |
| 2026-04-19 23:15 | 33.54397 | -86.62403 | 5215 ft | 253 kts | 153° |
| 2026-04-19 23:15 | 33.52664 | -86.61967 | 5731 ft | 262 kts | 185° |
| 2026-04-19 23:15 | 33.50852 | -86.62152 | 6289 ft | 269 kts | 187° |
| 2026-04-19 23:15 | 33.48948 | -86.62331 | 6766 ft | 280 kts | 185° |
| 2026-04-19 23:16 | 33.46970 | -86.62468 | 7235 ft | 290 kts | 184° |
| 2026-04-19 23:16 | 33.44917 | -86.62599 | 7728 ft | 300 kts | 184° |
| 2026-04-19 23:16 | 33.42811 | -86.62687 | 8330 ft | 305 kts | 182° |
| 2026-04-19 23:16 | 33.40686 | -86.62717 | 8944 ft | 308 kts | 181° |
| 2026-04-19 23:17 | 33.38522 | -86.62706 | 9502 ft | 312 kts | 180° |
| 2026-04-19 23:17 | 33.36341 | -86.62665 | 10160 ft | 314 kts | 181° |
| 2026-04-19 23:17 | 33.34100 | -86.62601 | 10411 ft | 331 kts | 181° |
| 2026-04-19 23:17 | 33.31731 | -86.62531 | 10619 ft | 349 kts | 181° |
| 2026-04-19 23:18 | 33.29251 | -86.62461 | 10868 ft | 364 kts | 181° |
| 2026-04-19 23:18 | 33.26717 | -86.62384 | 11337 ft | 371 kts | 181° |
| 2026-04-19 23:18 | 33.24138 | -86.62303 | 12046 ft | 370 kts | 182° |
| 2026-04-19 23:18 | 33.21556 | -86.62223 | 12739 ft | 370 kts | 182° |
| 2026-04-19 23:19 | 33.18970 | -86.62147 | 13301 ft | 374 kts | 182° |
| 2026-04-19 23:19 | 33.16352 | -86.62078 | 13866 ft | 377 kts | 183° |
| 2026-04-19 23:19 | 33.13720 | -86.62012 | 14461 ft | 379 kts | 183° |
| 2026-04-19 23:19 | 33.11068 | -86.61946 | 14985 ft | 383 kts | 184° |
| 2026-04-19 23:20 | 33.08393 | -86.61880 | 15502 ft | 386 kts | 182° |
| 2026-04-19 23:20 | 33.05704 | -86.61395 | 16027 ft | 396 kts | 169° |
| 2026-04-19 23:20 | 33.03041 | -86.60470 | 16589 ft | 400 kts | 167° |
| 2026-04-19 23:20 | 33.00381 | -86.59456 | 17093 ft | 403 kts | 166° |
| 2026-04-19 23:21 | 32.97694 | -86.58432 | 17546 ft | 407 kts | 167° |
| 2026-04-19 23:21 | 32.94986 | -86.57410 | 18031 ft | 410 kts | 167° |
| 2026-04-19 23:21 | 32.92256 | -86.56399 | 18512 ft | 412 kts | 168° |
| 2026-04-19 23:21 | 32.89502 | -86.55401 | 18966 ft | 414 kts | 168° |
| 2026-04-19 23:22 | 32.86735 | -86.54419 | 19409 ft | 416 kts | 169° |
| 2026-04-19 23:22 | 32.83945 | -86.53441 | 19826 ft | 419 kts | 169° |
| 2026-04-19 23:22 | 32.81142 | -86.52465 | 20259 ft | 421 kts | 170° |
| 2026-04-19 23:22 | 32.78326 | -86.51486 | 20702 ft | 422 kts | 170° |
| 2026-04-19 23:23 | 32.75501 | -86.50502 | 21090 ft | 425 kts | 170° |
| 2026-04-19 23:23 | 32.72648 | -86.49510 | 21423 ft | 428 kts | 171° |
| 2026-04-19 23:23 | 32.69778 | -86.48511 | 21817 ft | 431 kts | 171° |
| 2026-04-19 23:23 | 32.66899 | -86.47504 | 22221 ft | 432 kts | 171° |
| 2026-04-19 23:24 | 32.64009 | -86.46495 | 22647 ft | 433 kts | 171° |
| 2026-04-19 23:24 | 32.61150 | -86.45495 | 23005 ft | 435 kts | 172° |
| 2026-04-19 23:24 | 32.58236 | -86.44479 | 23304 ft | 438 kts | 172° |
| 2026-04-19 23:24 | 32.55301 | -86.43459 | 23638 ft | 440 kts | 172° |
| 2026-04-19 23:25 | 32.52352 | -86.42435 | 23949 ft | 443 kts | 172° |
| 2026-04-19 23:25 | 32.49386 | -86.41402 | 24343 ft | 445 kts | 173° |
| 2026-04-19 23:25 | 32.46414 | -86.40366 | 24747 ft | 444 kts | 173° |
| 2026-04-19 23:25 | 32.43437 | -86.39331 | 25108 ft | 445 kts | 173° |
| 2026-04-19 23:26 | 32.40465 | -86.38297 | 25428 ft | 447 kts | 173° |
| 2026-04-19 23:26 | 32.37472 | -86.37255 | 25752 ft | 449 kts | 173° |
| 2026-04-19 23:26 | 32.34464 | -86.36213 | 26121 ft | 450 kts | 173° |
| 2026-04-19 23:26 | 32.31454 | -86.35169 | 26489 ft | 450 kts | 173° |
| 2026-04-19 23:27 | 32.28451 | -86.34128 | 26824 ft | 450 kts | 173° |
| 2026-04-19 23:27 | 32.25440 | -86.33084 | 27103 ft | 452 kts | 173° |
| 2026-04-19 23:27 | 32.22443 | -86.31846 | 27418 ft | 465 kts | 161° |
| 2026-04-19 23:27 | 32.19728 | -86.29731 | 27695 ft | 482 kts | 148° |
| 2026-04-19 23:28 | 32.17189 | -86.27110 | 28023 ft | 486 kts | 145° |
| 2026-04-19 23:28 | 32.14694 | -86.24393 | 28289 ft | 489 kts | 145° |
| 2026-04-19 23:28 | 32.12191 | -86.21663 | 28551 ft | 490 kts | 145° |
| 2026-04-19 23:28 | 32.09675 | -86.18954 | 28898 ft | 489 kts | 146° |
| 2026-04-19 23:29 | 32.07146 | -86.16286 | 29286 ft | 486 kts | 146° |
| 2026-04-19 23:29 | 32.04622 | -86.13671 | 29727 ft | 481 kts | 147° |
| 2026-04-19 23:29 | 32.02107 | -86.11093 | 30158 ft | 478 kts | 147° |
| 2026-04-19 23:29 | 31.99598 | -86.08535 | 30517 ft | 476 kts | 148° |
| 2026-04-19 23:30 | 31.97938 | -86.06846 | 30689 ft | 476 kts | 148° |
| 2026-04-19 23:30 | 31.95422 | -86.04285 | 30838 ft | 479 kts | 148° |
| 2026-04-19 23:30 | 31.92901 | -86.01713 | 31077 ft | 480 kts | 148° |
| 2026-04-19 23:30 | 31.90388 | -85.99142 | 31376 ft | 479 kts | 148° |
| 2026-04-19 23:31 | 31.87872 | -85.96569 | 31629 ft | 479 kts | 148° |
| 2026-04-19 23:31 | 31.85353 | -85.93996 | 31824 ft | 480 kts | 148° |
| 2026-04-19 23:31 | 31.82833 | -85.91423 | 32053 ft | 481 kts | 148° |
| 2026-04-19 23:31 | 31.80309 | -85.88845 | 32298 ft | 481 kts | 148° |
| 2026-04-19 23:32 | 31.77783 | -85.86264 | 32551 ft | 480 kts | 148° |
| 2026-04-19 23:32 | 31.75260 | -85.83685 | 32770 ft | 481 kts | 148° |
| 2026-04-19 23:32 | 31.72737 | -85.81094 | 32966 ft | 482 kts | 148° |
| 2026-04-19 23:32 | 31.70220 | -85.78495 | 33233 ft | 481 kts | 148° |
| 2026-04-19 23:33 | 31.67709 | -85.75899 | 33494 ft | 480 kts | 148° |
| 2026-04-19 23:33 | 31.65233 | -85.73339 | 33704 ft | 480 kts | 148° |
| 2026-04-19 23:33 | 31.62719 | -85.70746 | 33862 ft | 482 kts | 148° |
| 2026-04-19 23:33 | 31.60193 | -85.68146 | 33969 ft | 484 kts | 148° |
| 2026-04-19 23:34 | 31.57658 | -85.65535 | 34181 ft | 484 kts | 148° |
| 2026-04-19 23:34 | 31.55137 | -85.62934 | 34442 ft | 482 kts | 148° |
| 2026-04-19 23:34 | 31.52621 | -85.60340 | 34688 ft | 481 kts | 148° |
| 2026-04-19 23:34 | 31.50105 | -85.57754 | 34841 ft | 482 kts | 148° |
| 2026-04-19 23:35 | 31.47579 | -85.55163 | 34980 ft | 483 kts | 148° |
| 2026-04-19 23:35 | 31.45050 | -85.52571 | 35116 ft | 484 kts | 148° |
| 2026-04-19 23:35 | 31.39971 | -85.47379 | 35214 ft | 482 kts | 148° |
| 2026-04-19 23:36 | 31.34929 | -85.42234 | 35240 ft | 479 kts | 148° |
| 2026-04-19 23:36 | 31.29908 | -85.37105 | 35249 ft | 478 kts | 148° |
| 2026-04-19 23:37 | 31.24922 | -85.32021 | 35250 ft | 479 kts | 148° |
| 2026-04-19 23:37 | 31.19855 | -85.26861 | 35249 ft | 481 kts | 148° |
| 2026-04-19 23:38 | 31.14842 | -85.21755 | 35239 ft | 480 kts | 148° |
| 2026-04-19 23:38 | 31.09815 | -85.16649 | 35232 ft | 478 kts | 148° |
| 2026-04-19 23:39 | 31.04784 | -85.11567 | 35225 ft | 480 kts | 148° |
| 2026-04-19 23:39 | 30.99723 | -85.06457 | 35219 ft | 482 kts | 148° |
| 2026-04-19 23:40 | 30.94658 | -85.01327 | 35215 ft | 482 kts | 148° |
| 2026-04-19 23:40 | 30.89604 | -84.96216 | 35206 ft | 481 kts | 148° |
| 2026-04-19 23:41 | 30.84549 | -84.91116 | 35206 ft | 479 kts | 148° |
| 2026-04-19 23:41 | 30.79520 | -84.86038 | 35205 ft | 478 kts | 148° |
| 2026-04-19 23:42 | 30.74485 | -84.80977 | 35208 ft | 479 kts | 149° |
| 2026-04-19 23:42 | 30.69410 | -84.75939 | 35209 ft | 481 kts | 149° |
| 2026-04-19 23:43 | 30.64367 | -84.70904 | 35207 ft | 480 kts | 148° |
| 2026-04-19 23:43 | 30.59280 | -84.65811 | 35205 ft | 479 kts | 149° |
| 2026-04-19 23:44 | 30.54263 | -84.60792 | 35205 ft | 479 kts | 149° |
| 2026-04-19 23:44 | 30.49217 | -84.55754 | 35205 ft | 478 kts | 148° |
| 2026-04-19 23:45 | 30.44173 | -84.50728 | 35198 ft | 478 kts | 149° |
| 2026-04-19 23:45 | 30.39122 | -84.45717 | 35184 ft | 477 kts | 149° |
| 2026-04-19 23:46 | 30.34076 | -84.40713 | 35170 ft | 480 kts | 149° |
| 2026-04-19 23:46 | 30.28958 | -84.35651 | 35173 ft | 485 kts | 149° |
| 2026-04-19 23:47 | 30.23825 | -84.30564 | 35170 ft | 485 kts | 149° |
| 2026-04-19 23:47 | 30.18718 | -84.25505 | 35172 ft | 489 kts | 148° |
| 2026-04-19 23:48 | 30.13576 | -84.20411 | 35167 ft | 484 kts | 148° |
| 2026-04-19 23:48 | 30.08477 | -84.15361 | 35166 ft | 481 kts | 149° |
| 2026-04-19 23:49 | 30.03374 | -84.10329 | 35157 ft | 483 kts | 149° |
| 2026-04-19 23:49 | 29.98256 | -84.05292 | 35153 ft | 484 kts | 149° |
| 2026-04-19 23:50 | 29.93122 | -84.00255 | 35151 ft | 484 kts | 149° |
| 2026-04-19 23:50 | 29.88004 | -83.95226 | 35140 ft | 483 kts | 149° |
| 2026-04-19 23:51 | 29.82882 | -83.90199 | 35139 ft | 482 kts | 151° |
| 2026-04-19 23:51 | 29.80172 | -83.88041 | 35148 ft | 469 kts | 160° |
| 2026-04-19 23:51 | 29.77374 | -83.86222 | 35149 ft | 466 kts | 162° |
| 2026-04-19 23:52 | 29.71652 | -83.82700 | 35141 ft | 467 kts | 162° |
| 2026-04-19 23:52 | 29.65936 | -83.79112 | 35137 ft | 468 kts | 161° |
| 2026-04-19 23:53 | 29.60272 | -83.75463 | 35133 ft | 466 kts | 161° |
| 2026-04-19 23:53 | 29.54633 | -83.71805 | 35140 ft | 466 kts | 161° |
| 2026-04-19 23:54 | 29.48953 | -83.68150 | 35137 ft | 469 kts | 161° |
| 2026-04-19 23:54 | 29.43267 | -83.64494 | 35130 ft | 467 kts | 161° |
| 2026-04-19 23:55 | 29.37586 | -83.60855 | 34839 ft | 471 kts | 161° |
| 2026-04-19 23:55 | 29.34694 | -83.59019 | 34327 ft | 475 kts | 160° |
| 2026-04-19 23:55 | 29.31817 | -83.57183 | 33773 ft | 473 kts | 160° |
| 2026-04-19 23:56 | 29.28946 | -83.55344 | 33193 ft | 470 kts | 160° |
| 2026-04-19 23:56 | 29.26098 | -83.53519 | 32594 ft | 470 kts | 160° |
| 2026-04-19 23:56 | 29.23245 | -83.51692 | 31996 ft | 470 kts | 160° |
| 2026-04-19 23:56 | 29.20385 | -83.49869 | 31384 ft | 471 kts | 160° |
| 2026-04-19 23:57 | 29.17499 | -83.48045 | 30670 ft | 475 kts | 159° |
| 2026-04-19 23:57 | 29.14626 | -83.46228 | 29890 ft | 479 kts | 159° |
| 2026-04-19 23:57 | 29.11709 | -83.44377 | 29071 ft | 479 kts | 159° |
| 2026-04-19 23:57 | 29.08795 | -83.42524 | 28278 ft | 477 kts | 158° |
| 2026-04-19 23:58 | 29.05896 | -83.40680 | 27500 ft | 475 kts | 158° |
| 2026-04-19 23:58 | 29.03015 | -83.38848 | 26722 ft | 473 kts | 158° |
| 2026-04-19 23:58 | 29.00151 | -83.37033 | 25997 ft | 469 kts | 157° |
| 2026-04-19 23:58 | 28.97301 | -83.35224 | 25264 ft | 466 kts | 157° |
| 2026-04-19 23:59 | 28.94477 | -83.33430 | 24556 ft | 462 kts | 156° |
| 2026-04-19 23:59 | 28.91713 | -83.31674 | 23856 ft | 459 kts | 156° |
| 2026-04-19 23:59 | 28.88934 | -83.29911 | 23154 ft | 455 kts | 156° |
| 2026-04-19 23:59 | 28.86181 | -83.28165 | 22453 ft | 451 kts | 156° |
| 2026-04-20 00:00 | 28.83444 | -83.26428 | 21749 ft | 448 kts | 156° |
| 2026-04-20 00:00 | 28.80730 | -83.24710 | 21055 ft | 444 kts | 156° |
| 2026-04-20 00:00 | 28.78038 | -83.23006 | 20366 ft | 440 kts | 156° |
| 2026-04-20 00:00 | 28.75371 | -83.21321 | 19696 ft | 436 kts | 156° |
| 2026-04-20 00:01 | 28.72727 | -83.19653 | 19020 ft | 433 kts | 156° |
| 2026-04-20 00:01 | 28.70094 | -83.17992 | 18349 ft | 428 kts | 155° |
| 2026-04-20 00:01 | 28.64928 | -83.14734 | 17037 ft | 420 kts | 155° |
| 2026-04-20 00:02 | 28.62376 | -83.13130 | 16332 ft | 418 kts | 155° |
| 2026-04-20 00:02 | 28.59838 | -83.11540 | 15675 ft | 414 kts | 154° |
| 2026-04-20 00:02 | 28.57334 | -83.09968 | 15016 ft | 405 kts | 154° |
| 2026-04-20 00:02 | 28.54912 | -83.08445 | 14366 ft | 389 kts | 154° |
| 2026-04-20 00:03 | 28.52612 | -83.06999 | 13746 ft | 375 kts | 154° |
| 2026-04-20 00:03 | 28.50365 | -83.05593 | 13150 ft | 364 kts | 154° |
| 2026-04-20 00:03 | 28.48159 | -83.04214 | 12585 ft | 359 kts | 153° |
| 2026-04-20 00:03 | 28.45979 | -83.02850 | 12023 ft | 357 kts | 153° |
| 2026-04-20 00:04 | 28.43803 | -83.01487 | 11504 ft | 356 kts | 153° |
| 2026-04-20 00:04 | 28.41654 | -83.00141 | 11236 ft | 349 kts | 153° |
| 2026-04-20 00:04 | 28.39533 | -82.98813 | 11117 ft | 347 kts | 152° |
| 2026-04-20 00:04 | 28.37413 | -82.97482 | 11057 ft | 348 kts | 152° |
| 2026-04-20 00:05 | 28.35292 | -82.96150 | 11030 ft | 349 kts | 152° |
| 2026-04-20 00:05 | 28.33161 | -82.94813 | 11019 ft | 350 kts | 152° |
| 2026-04-20 00:05 | 28.31018 | -82.93471 | 10844 ft | 354 kts | 152° |
| 2026-04-20 00:05 | 28.28870 | -82.92128 | 10359 ft | 351 kts | 152° |
| 2026-04-20 00:06 | 28.26818 | -82.90708 | 9878 ft | 349 kts | 142° |
| 2026-04-20 00:06 | 28.25016 | -82.88877 | 9412 ft | 345 kts | 135° |
| 2026-04-20 00:06 | 28.23331 | -82.86958 | 8939 ft | 342 kts | 135° |
| 2026-04-20 00:06 | 28.21673 | -82.85050 | 8646 ft | 333 kts | 134° |
| 2026-04-20 00:07 | 28.20077 | -82.83216 | 8534 ft | 319 kts | 134° |
| 2026-04-20 00:07 | 28.18556 | -82.81476 | 8349 ft | 303 kts | 135° |
| 2026-04-20 00:07 | 28.17101 | -82.79824 | 8150 ft | 290 kts | 135° |
| 2026-04-20 00:07 | 28.15687 | -82.78238 | 7954 ft | 281 kts | 135° |
| 2026-04-20 00:08 | 28.14302 | -82.76698 | 7765 ft | 276 kts | 135° |
| 2026-04-20 00:08 | 28.12928 | -82.75179 | 7588 ft | 277 kts | 136° |
| 2026-04-20 00:08 | 28.11548 | -82.73661 | 7420 ft | 276 kts | 136° |
| 2026-04-20 00:08 | 28.10170 | -82.72146 | 7245 ft | 277 kts | 136° |
| 2026-04-20 00:09 | 28.08806 | -82.70649 | 7055 ft | 276 kts | 136° |
| 2026-04-20 00:09 | 28.07425 | -82.69136 | 6860 ft | 276 kts | 135° |
| 2026-04-20 00:09 | 28.06070 | -82.67609 | 6669 ft | 274 kts | 135° |
| 2026-04-20 00:09 | 28.04727 | -82.66075 | 6489 ft | 274 kts | 134° |
| 2026-04-20 00:10 | 28.03392 | -82.64542 | 6328 ft | 273 kts | 134° |
| 2026-04-20 00:10 | 28.02056 | -82.63004 | 6151 ft | 275 kts | 134° |
| 2026-04-20 00:10 | 28.00531 | -82.61730 | 5982 ft | 272 kts | 159° |
| 2026-04-20 00:10 | 27.98690 | -82.61374 | 5850 ft | 269 kts | 180° |
| 2026-04-20 00:11 | 27.96814 | -82.61420 | 5711 ft | 270 kts | 183° |
| 2026-04-20 00:11 | 27.94970 | -82.61515 | 5563 ft | 257 kts | 184° |
| 2026-04-20 00:11 | 27.93258 | -82.61622 | 5407 ft | 236 kts | 185° |
| 2026-04-20 00:11 | 27.91652 | -82.61736 | 5256 ft | 228 kts | 185° |
| 2026-04-20 00:12 | 27.90081 | -82.61849 | 5120 ft | 231 kts | 185° |
| 2026-04-20 00:12 | 27.88469 | -82.61954 | 5052 ft | 232 kts | 184° |
| 2026-04-20 00:12 | 27.86850 | -82.62053 | 5023 ft | 234 kts | 184° |
| 2026-04-20 00:12 | 27.85219 | -82.62142 | 5010 ft | 235 kts | 184° |
| 2026-04-20 00:13 | 27.83580 | -82.62223 | 5002 ft | 235 kts | 184° |
| 2026-04-20 00:13 | 27.81945 | -82.62302 | 4995 ft | 235 kts | 184° |
| 2026-04-20 00:13 | 27.80303 | -82.62382 | 4990 ft | 236 kts | 183° |
| 2026-04-20 00:13 | 27.78666 | -82.62446 | 4986 ft | 235 kts | 183° |
| 2026-04-20 00:14 | 27.77027 | -82.62501 | 4984 ft | 235 kts | 183° |
| 2026-04-20 00:14 | 27.75414 | -82.62554 | 4983 ft | 235 kts | 183° |
| 2026-04-20 00:14 | 27.73805 | -82.62309 | 4973 ft | 236 kts | 156° |
| 2026-04-20 00:14 | 27.72560 | -82.61144 | 4983 ft | 236 kts | 121° |
| 2026-04-20 00:15 | 27.72096 | -82.59395 | 4999 ft | 235 kts | 88° |
| 2026-04-20 00:15 | 27.72537 | -82.57646 | 5007 ft | 233 kts | 54° |
| 2026-04-20 00:15 | 27.73707 | -82.56422 | 5017 ft | 231 kts | 31° |
| 2026-04-20 00:15 | 27.75068 | -82.55466 | 5001 ft | 229 kts | 20° |
| 2026-04-20 00:16 | 27.76085 | -82.55175 | 5001 ft | 227 kts | 5° |
| 2026-04-20 00:16 | 27.78139 | -82.54949 | 4745 ft | 219 kts | 4° |
| 2026-04-20 00:16 | 27.79152 | -82.54846 | 4517 ft | 215 kts | 2° |
| 2026-04-20 00:16 | 27.80642 | -82.54755 | 4031 ft | 213 kts | 360° |
| 2026-04-20 00:17 | 27.82040 | -82.54704 | 3529 ft | 189 kts | 359° |
| 2026-04-20 00:17 | 27.83289 | -82.54664 | 3056 ft | 170 kts | 358° |
| 2026-04-20 00:17 | 27.84399 | -82.54629 | 2791 ft | 152 kts | 359° |
| 2026-04-20 00:17 | 27.85461 | -82.54595 | 2456 ft | 153 kts | 358° |
| 2026-04-20 00:18 | 27.86519 | -82.54625 | 2105 ft | 153 kts | 354° |
| 2026-04-20 00:18 | 27.87568 | -82.54651 | 1835 ft | 148 kts | 0° |
| 2026-04-20 00:18 | 27.88569 | -82.54564 | 1632 ft | 145 kts | 4° |
| 2026-04-20 00:18 | 27.89601 | -82.54460 | 1429 ft | 149 kts | 2° |
| 2026-04-20 00:19 | 27.90613 | -82.54421 | 1267 ft | 145 kts | 357° |
| 2026-04-20 00:19 | 27.91625 | -82.54431 | 1014 ft | 146 kts | 1° |
| 2026-04-20 00:19 | 27.92616 | -82.54357 | 812 ft | 140 kts | 0° |
| 2026-04-20 00:19 | 27.93591 | -82.54344 | 615 ft | 141 kts | 360° |
| 2026-04-20 00:20 | 27.94568 | -82.54298 | 432 ft | 141 kts | 359° |
| 2026-04-20 00:20 | 27.95554 | -82.54270 | 261 ft | 144 kts | 1° |
| 2026-04-20 00:20 | 27.96539 | -82.54231 | 42 ft | 138 kts | 0° |
| 2026-04-20 00:20 | 27.97411 | -82.54203 | 25 ft | 103 kts | 1° |
| 2026-04-20 00:21 | 27.97958 | -82.54182 | 23 ft | 60 kts | 1° |
| 2026-04-20 00:21 | 27.98204 | -82.54162 | 28 ft | 23 kts | 17° |
| 2026-04-20 00:21 | 27.98260 | -82.54118 | 30 ft | 5 kts | 50° |
| 2026-04-20 00:21 | 27.98278 | -82.54100 | 30 ft | 3 kts | 39° |
| 2026-04-20 00:22 | 27.98297 | -82.54082 | 30 ft | 4 kts | 39° |
| 2026-04-20 00:22 | 27.98321 | -82.54058 | 30 ft | 5 kts | 49° |
| 2026-04-20 00:22 | 27.98330 | -82.54042 | 30 ft | 0 kts | 65° |
| 2026-04-20 00:23 | 27.98331 | -82.54036 | 30 ft | 2 kts | 74° |
| 2026-04-20 00:23 | 27.98333 | -82.54019 | 30 ft | 2 kts | 85° |
| 2026-04-20 00:23 | 27.98333 | -82.54018 | 30 ft | 0 kts | 85° |
| 2026-04-20 00:25 | 27.98334 | -82.54011 | 29 ft | 4 kts | 85° |
| 2026-04-20 00:25 | 27.98326 | -82.53981 | 29 ft | 5 kts | 126° |
| 2026-04-20 00:25 | 27.98290 | -82.53966 | 28 ft | 7 kts | 176° |
| 2026-04-20 00:26 | 27.98236 | -82.53965 | 28 ft | 8 kts | 181° |
| 2026-04-20 00:26 | 27.98188 | -82.53966 | 28 ft | 7 kts | 180° |
| 2026-04-20 00:26 | 27.98133 | -82.53967 | 28 ft | 9 kts | 182° |
| 2026-04-20 00:26 | 27.98078 | -82.53969 | 27 ft | 9 kts | 181° |
| 2026-04-20 00:27 | 27.98021 | -82.53971 | 27 ft | 7 kts | 182° |
| 2026-04-20 00:27 | 27.97986 | -82.53972 | 25 ft | 2 kts | 176° |
| 2026-04-20 00:27 | 27.97976 | -82.53963 | 25 ft | 2 kts | 127° |
| 2026-04-20 00:27 | 27.97970 | -82.53951 | 27 ft | 2 kts | 121° |
| 2026-04-20 00:28 | 27.97960 | -82.53933 | 25 ft | 3 kts | 120° |
| 2026-04-20 00:28 | 27.97956 | -82.53913 | 28 ft | 2 kts | 98° |
| 2026-04-20 00:28 | 27.97955 | -82.53898 | 28 ft | 0 kts | 92° |
| 2026-04-20 00:28 | 27.97955 | -82.53895 | 25 ft | 1 kts | 91° |
| 2026-04-20 00:29 | 27.97955 | -82.53893 | 26 ft | 0 kts | 91° |